sensor_id;sensor_type;location;lat;lon;timestamp;P1;durP1;ratioP1;P2;durP2;ratioP2
71730;SDS011;59575;43.486;3.666;2022-12-07T00:01:25;24.98;;;15.68;;
71730;SDS011;59575;43.486;3.666;2022-12-07T00:03:53;25.73;;;14.75;;
71730;SDS011;59575;43.486;3.666;2022-12-07T00:06:25;22.30;;;13.20;;
71730;SDS011;59575;43.486;3.666;2022-12-07T00:08:51;26.55;;;14.63;;
71730;SDS011;59575;43.486;3.666;2022-12-07T00:11:19;25.92;;;14.23;;
71730;SDS011;59575;43.486;3.666;2022-12-07T00:13:46;26.83;;;14.73;;
71730;SDS011;59575;43.486;3.666;2022-12-07T00:16:16;28.73;;;14.95;;
71730;SDS011;59575;43.486;3.666;2022-12-07T00:18:43;29.23;;;14.95;;
71730;SDS011;59575;43.486;3.666;2022-12-07T00:21:10;26.75;;;14.45;;
71730;SDS011;59575;43.486;3.666;2022-12-07T00:23:42;25.90;;;14.35;;
71730;SDS011;59575;43.486;3.666;2022-12-07T00:26:10;33.63;;;16.75;;
71730;SDS011;59575;43.486;3.666;2022-12-07T00:28:44;35.28;;;18.35;;
71730;SDS011;59575;43.486;3.666;2022-12-07T00:31:12;30.92;;;15.55;;
71730;SDS011;59575;43.486;3.666;2022-12-07T00:33:38;30.35;;;16.20;;
71730;SDS011;59575;43.486;3.666;2022-12-07T00:36:05;26.77;;;13.63;;
71730;SDS011;59575;43.486;3.666;2022-12-07T00:38:34;23.05;;;12.93;;
71730;SDS011;59575;43.486;3.666;2022-12-07T00:41:02;27.80;;;14.27;;
71730;SDS011;59575;43.486;3.666;2022-12-07T00:43:30;19.85;;;11.48;;
71730;SDS011;59575;43.486;3.666;2022-12-07T00:45:56;16.20;;;9.43;;
71730;SDS011;59575;43.486;3.666;2022-12-07T00:48:22;15.65;;;9.02;;
71730;SDS011;59575;43.486;3.666;2022-12-07T00:50:48;16.85;;;9.82;;
71730;SDS011;59575;43.486;3.666;2022-12-07T00:53:15;17.77;;;10.63;;
71730;SDS011;59575;43.486;3.666;2022-12-07T00:55:41;17.92;;;10.55;;
71730;SDS011;59575;43.486;3.666;2022-12-07T00:58:07;20.05;;;10.35;;
71730;SDS011;59575;43.486;3.666;2022-12-07T01:00:34;17.20;;;10.55;;
71730;SDS011;59575;43.486;3.666;2022-12-07T01:03:01;18.13;;;10.38;;
71730;SDS011;59575;43.486;3.666;2022-12-07T01:05:28;17.52;;;11.00;;
71730;SDS011;59575;43.486;3.666;2022-12-07T01:07:53;17.88;;;10.68;;
71730;SDS011;59575;43.486;3.666;2022-12-07T01:10:19;18.38;;;10.57;;
71730;SDS011;59575;43.486;3.666;2022-12-07T01:12:45;21.13;;;10.60;;
71730;SDS011;59575;43.486;3.666;2022-12-07T01:15:10;20.15;;;11.68;;
71730;SDS011;59575;43.486;3.666;2022-12-07T01:17:36;18.77;;;11.27;;
71730;SDS011;59575;43.486;3.666;2022-12-07T01:20:02;17.58;;;10.35;;
71730;SDS011;59575;43.486;3.666;2022-12-07T01:22:29;23.98;;;13.18;;
71730;SDS011;59575;43.486;3.666;2022-12-07T01:24:54;19.95;;;11.10;;
71730;SDS011;59575;43.486;3.666;2022-12-07T01:27:21;18.48;;;11.27;;
71730;SDS011;59575;43.486;3.666;2022-12-07T01:29:46;20.88;;;10.90;;
71730;SDS011;59575;43.486;3.666;2022-12-07T01:32:12;18.42;;;11.30;;
71730;SDS011;59575;43.486;3.666;2022-12-07T01:34:38;21.23;;;11.13;;
71730;SDS011;59575;43.486;3.666;2022-12-07T01:37:03;19.38;;;10.82;;
71730;SDS011;59575;43.486;3.666;2022-12-07T01:39:29;19.23;;;11.27;;
71730;SDS011;59575;43.486;3.666;2022-12-07T01:41:55;16.55;;;10.23;;
71730;SDS011;59575;43.486;3.666;2022-12-07T01:46:53;20.20;;;10.40;;
71730;SDS011;59575;43.486;3.666;2022-12-07T01:54:45;15.98;;;9.38;;
71730;SDS011;59575;43.486;3.666;2022-12-07T01:57:13;18.65;;;10.38;;
71730;SDS011;59575;43.486;3.666;2022-12-07T01:59:41;16.67;;;10.00;;
71730;SDS011;59575;43.486;3.666;2022-12-07T02:02:10;20.70;;;10.75;;
71730;SDS011;59575;43.486;3.666;2022-12-07T02:04:43;16.63;;;9.27;;
71730;SDS011;59575;43.486;3.666;2022-12-07T02:07:09;15.88;;;9.70;;
71730;SDS011;59575;43.486;3.666;2022-12-07T02:09:35;18.15;;;9.32;;
71730;SDS011;59575;43.486;3.666;2022-12-07T02:12:01;16.23;;;9.68;;
71730;SDS011;59575;43.486;3.666;2022-12-07T02:14:27;19.02;;;10.05;;
71730;SDS011;59575;43.486;3.666;2022-12-07T02:24:48;18.50;;;10.48;;
71730;SDS011;59575;43.486;3.666;2022-12-07T02:28:15;19.08;;;10.30;;
71730;SDS011;59575;43.486;3.666;2022-12-07T02:30:20;23.95;;;12.13;;
71730;SDS011;59575;43.486;3.666;2022-12-07T02:40:41;16.55;;;9.75;;
71730;SDS011;59575;43.486;3.666;2022-12-07T02:43:28;15.95;;;9.65;;
71730;SDS011;59575;43.486;3.666;2022-12-07T02:46:00;16.15;;;9.80;;
71730;SDS011;59575;43.486;3.666;2022-12-07T02:48:29;18.58;;;10.95;;
71730;SDS011;59575;43.486;3.666;2022-12-07T02:50:58;20.20;;;11.35;;
71730;SDS011;59575;43.486;3.666;2022-12-07T02:53:31;21.17;;;11.40;;
71730;SDS011;59575;43.486;3.666;2022-12-07T02:55:59;21.77;;;10.43;;
71730;SDS011;59575;43.486;3.666;2022-12-07T03:03:43;17.15;;;9.55;;
71730;SDS011;59575;43.486;3.666;2022-12-07T03:06:20;18.42;;;10.50;;
71730;SDS011;59575;43.486;3.666;2022-12-07T03:08:57;16.27;;;9.80;;
71730;SDS011;59575;43.486;3.666;2022-12-07T03:11:46;17.27;;;9.68;;
71730;SDS011;59575;43.486;3.666;2022-12-07T03:17:01;19.15;;;10.43;;
71730;SDS011;59575;43.486;3.666;2022-12-07T03:19:33;18.42;;;10.07;;
71730;SDS011;59575;43.486;3.666;2022-12-07T03:22:01;19.23;;;10.85;;
71730;SDS011;59575;43.486;3.666;2022-12-07T03:24:35;18.20;;;10.73;;
71730;SDS011;59575;43.486;3.666;2022-12-07T03:27:25;19.00;;;10.90;;
71730;SDS011;59575;43.486;3.666;2022-12-07T03:30:05;18.25;;;10.82;;
71730;SDS011;59575;43.486;3.666;2022-12-07T03:32:42;20.65;;;11.07;;
71730;SDS011;59575;43.486;3.666;2022-12-07T03:35:29;18.63;;;10.43;;
71730;SDS011;59575;43.486;3.666;2022-12-07T03:40:55;19.38;;;10.27;;
71730;SDS011;59575;43.486;3.666;2022-12-07T03:43:29;18.90;;;10.50;;
71730;SDS011;59575;43.486;3.666;2022-12-07T03:46:06;18.23;;;10.23;;
71730;SDS011;59575;43.486;3.666;2022-12-07T03:51:31;20.33;;;10.65;;
71730;SDS011;59575;43.486;3.666;2022-12-07T03:54:30;16.48;;;10.00;;
71730;SDS011;59575;43.486;3.666;2022-12-07T03:57:04;18.67;;;9.93;;
71730;SDS011;59575;43.486;3.666;2022-12-07T03:59:31;18.42;;;10.60;;
71730;SDS011;59575;43.486;3.666;2022-12-07T04:02:04;22.75;;;12.68;;
71730;SDS011;59575;43.486;3.666;2022-12-07T04:04:31;19.25;;;11.43;;
71730;SDS011;59575;43.486;3.666;2022-12-07T04:06:58;19.83;;;11.18;;
71730;SDS011;59575;43.486;3.666;2022-12-07T04:09:24;15.70;;;9.65;;
71730;SDS011;59575;43.486;3.666;2022-12-07T04:11:50;17.50;;;9.85;;
71730;SDS011;59575;43.486;3.666;2022-12-07T04:14:15;20.63;;;10.18;;
71730;SDS011;59575;43.486;3.666;2022-12-07T04:16:48;17.77;;;9.70;;
71730;SDS011;59575;43.486;3.666;2022-12-07T04:19:17;16.35;;;9.90;;
71730;SDS011;59575;43.486;3.666;2022-12-07T04:21:44;19.60;;;10.27;;
71730;SDS011;59575;43.486;3.666;2022-12-07T04:24:11;17.75;;;9.85;;
71730;SDS011;59575;43.486;3.666;2022-12-07T04:26:38;18.15;;;9.60;;
71730;SDS011;59575;43.486;3.666;2022-12-07T04:29:04;18.25;;;10.30;;
71730;SDS011;59575;43.486;3.666;2022-12-07T04:31:29;18.42;;;10.05;;
71730;SDS011;59575;43.486;3.666;2022-12-07T04:33:55;18.48;;;10.07;;
71730;SDS011;59575;43.486;3.666;2022-12-07T04:36:21;15.10;;;9.23;;
71730;SDS011;59575;43.486;3.666;2022-12-07T04:38:47;18.55;;;10.35;;
71730;SDS011;59575;43.486;3.666;2022-12-07T04:41:13;14.93;;;9.20;;
71730;SDS011;59575;43.486;3.666;2022-12-07T04:43:39;16.02;;;9.40;;
71730;SDS011;59575;43.486;3.666;2022-12-07T04:46:05;16.63;;;9.35;;
71730;SDS011;59575;43.486;3.666;2022-12-07T04:48:30;17.20;;;9.40;;
71730;SDS011;59575;43.486;3.666;2022-12-07T04:50:56;25.52;;;14.43;;
71730;SDS011;59575;43.486;3.666;2022-12-07T04:53:22;17.52;;;11.05;;
71730;SDS011;59575;43.486;3.666;2022-12-07T04:55:48;18.83;;;10.15;;
71730;SDS011;59575;43.486;3.666;2022-12-07T04:58:14;16.58;;;9.63;;
71730;SDS011;59575;43.486;3.666;2022-12-07T05:00:40;17.73;;;10.52;;
71730;SDS011;59575;43.486;3.666;2022-12-07T05:03:06;19.80;;;11.48;;
71730;SDS011;59575;43.486;3.666;2022-12-07T05:05:31;18.48;;;10.70;;
71730;SDS011;59575;43.486;3.666;2022-12-07T05:07:57;21.45;;;11.07;;
71730;SDS011;59575;43.486;3.666;2022-12-07T05:10:23;18.73;;;10.80;;
71730;SDS011;59575;43.486;3.666;2022-12-07T05:12:49;17.83;;;10.82;;
71730;SDS011;59575;43.486;3.666;2022-12-07T05:15:15;21.17;;;12.38;;
71730;SDS011;59575;43.486;3.666;2022-12-07T05:17:41;20.55;;;11.50;;
71730;SDS011;59575;43.486;3.666;2022-12-07T05:20:07;21.48;;;10.70;;
71730;SDS011;59575;43.486;3.666;2022-12-07T05:22:33;26.05;;;11.40;;
71730;SDS011;59575;43.486;3.666;2022-12-07T05:24:59;19.55;;;10.63;;
71730;SDS011;59575;43.486;3.666;2022-12-07T05:27:25;17.98;;;10.32;;
71730;SDS011;59575;43.486;3.666;2022-12-07T05:29:50;23.98;;;10.82;;
71730;SDS011;59575;43.486;3.666;2022-12-07T05:32:16;22.70;;;10.88;;
71730;SDS011;59575;43.486;3.666;2022-12-07T05:34:43;21.48;;;11.25;;
71730;SDS011;59575;43.486;3.666;2022-12-07T05:37:08;17.95;;;9.43;;
71730;SDS011;59575;43.486;3.666;2022-12-07T05:39:34;18.60;;;11.05;;
71730;SDS011;59575;43.486;3.666;2022-12-07T05:42:00;18.85;;;10.00;;
71730;SDS011;59575;43.486;3.666;2022-12-07T05:44:41;19.25;;;9.45;;
71730;SDS011;59575;43.486;3.666;2022-12-07T05:47:09;17.83;;;9.18;;
71730;SDS011;59575;43.486;3.666;2022-12-07T05:49:35;23.63;;;10.35;;
71730;SDS011;59575;43.486;3.666;2022-12-07T05:52:01;25.08;;;10.15;;
71730;SDS011;59575;43.486;3.666;2022-12-07T05:54:27;28.25;;;10.77;;
71730;SDS011;59575;43.486;3.666;2022-12-07T05:56:53;21.42;;;9.65;;
71730;SDS011;59575;43.486;3.666;2022-12-07T05:59:19;18.02;;;9.35;;
71730;SDS011;59575;43.486;3.666;2022-12-07T06:01:48;23.80;;;10.02;;
71730;SDS011;59575;43.486;3.666;2022-12-07T06:04:18;28.15;;;11.27;;
71730;SDS011;59575;43.486;3.666;2022-12-07T06:06:44;24.48;;;11.40;;
71730;SDS011;59575;43.486;3.666;2022-12-07T06:09:10;20.55;;;10.77;;
71730;SDS011;59575;43.486;3.666;2022-12-07T06:11:36;19.25;;;9.93;;
71730;SDS011;59575;43.486;3.666;2022-12-07T06:14:20;17.17;;;9.95;;
71730;SDS011;59575;43.486;3.666;2022-12-07T06:16:45;33.25;;;17.23;;
71730;SDS011;59575;43.486;3.666;2022-12-07T06:19:11;31.52;;;13.50;;
71730;SDS011;59575;43.486;3.666;2022-12-07T06:21:37;19.20;;;11.15;;
71730;SDS011;59575;43.486;3.666;2022-12-07T06:24:03;19.58;;;9.85;;
71730;SDS011;59575;43.486;3.666;2022-12-07T06:26:28;16.80;;;9.73;;
71730;SDS011;59575;43.486;3.666;2022-12-07T06:28:54;21.25;;;10.40;;
71730;SDS011;59575;43.486;3.666;2022-12-07T06:31:20;21.33;;;10.63;;
71730;SDS011;59575;43.486;3.666;2022-12-07T06:33:46;20.73;;;10.93;;
71730;SDS011;59575;43.486;3.666;2022-12-07T06:36:12;28.70;;;13.32;;
71730;SDS011;59575;43.486;3.666;2022-12-07T06:38:37;23.00;;;12.07;;
71730;SDS011;59575;43.486;3.666;2022-12-07T06:41:03;34.03;;;12.73;;
71730;SDS011;59575;43.486;3.666;2022-12-07T06:43:29;32.75;;;12.32;;
71730;SDS011;59575;43.486;3.666;2022-12-07T06:45:55;17.13;;;9.63;;
71730;SDS011;59575;43.486;3.666;2022-12-07T06:48:21;20.63;;;11.18;;
71730;SDS011;59575;43.486;3.666;2022-12-07T06:50:47;32.25;;;15.73;;
71730;SDS011;59575;43.486;3.666;2022-12-07T06:53:13;32.22;;;18.88;;
71730;SDS011;59575;43.486;3.666;2022-12-07T06:55:39;24.00;;;14.05;;
71730;SDS011;59575;43.486;3.666;2022-12-07T06:58:04;29.33;;;13.82;;
71730;SDS011;59575;43.486;3.666;2022-12-07T07:00:30;26.63;;;13.07;;
71730;SDS011;59575;43.486;3.666;2022-12-07T07:02:56;29.95;;;14.32;;
71730;SDS011;59575;43.486;3.666;2022-12-07T07:05:22;25.60;;;12.20;;
71730;SDS011;59575;43.486;3.666;2022-12-07T07:07:50;30.65;;;13.55;;
71730;SDS011;59575;43.486;3.666;2022-12-07T07:10:16;21.35;;;11.43;;
71730;SDS011;59575;43.486;3.666;2022-12-07T07:12:42;23.85;;;10.13;;
71730;SDS011;59575;43.486;3.666;2022-12-07T07:15:08;18.88;;;9.75;;
71730;SDS011;59575;43.486;3.666;2022-12-07T07:17:34;19.98;;;10.52;;
71730;SDS011;59575;43.486;3.666;2022-12-07T07:20:00;23.75;;;10.90;;
71730;SDS011;59575;43.486;3.666;2022-12-07T07:22:26;22.40;;;10.75;;
71730;SDS011;59575;43.486;3.666;2022-12-07T07:24:51;18.40;;;10.65;;
71730;SDS011;59575;43.486;3.666;2022-12-07T07:27:17;18.75;;;11.00;;
71730;SDS011;59575;43.486;3.666;2022-12-07T07:29:43;19.67;;;10.95;;
71730;SDS011;59575;43.486;3.666;2022-12-07T07:32:08;20.77;;;10.35;;
71730;SDS011;59575;43.486;3.666;2022-12-07T07:34:34;21.90;;;10.50;;
71730;SDS011;59575;43.486;3.666;2022-12-07T07:37:00;22.90;;;10.23;;
71730;SDS011;59575;43.486;3.666;2022-12-07T07:39:26;27.88;;;10.23;;
71730;SDS011;59575;43.486;3.666;2022-12-07T07:41:51;26.17;;;11.77;;
71730;SDS011;59575;43.486;3.666;2022-12-07T07:44:17;24.85;;;12.40;;
71730;SDS011;59575;43.486;3.666;2022-12-07T07:46:42;19.42;;;10.38;;
71730;SDS011;59575;43.486;3.666;2022-12-07T07:49:09;21.15;;;10.13;;
71730;SDS011;59575;43.486;3.666;2022-12-07T07:51:35;24.08;;;10.73;;
71730;SDS011;59575;43.486;3.666;2022-12-07T07:54:02;17.88;;;9.50;;
71730;SDS011;59575;43.486;3.666;2022-12-07T07:56:28;20.48;;;9.55;;
71730;SDS011;59575;43.486;3.666;2022-12-07T07:58:53;23.40;;;11.25;;
71730;SDS011;59575;43.486;3.666;2022-12-07T08:01:20;25.42;;;11.73;;
71730;SDS011;59575;43.486;3.666;2022-12-07T08:03:46;26.00;;;13.18;;
71730;SDS011;59575;43.486;3.666;2022-12-07T08:06:12;40.00;;;17.33;;
71730;SDS011;59575;43.486;3.666;2022-12-07T08:08:38;34.15;;;16.92;;
71730;SDS011;59575;43.486;3.666;2022-12-07T08:11:07;38.47;;;14.27;;
71730;SDS011;59575;43.486;3.666;2022-12-07T08:13:33;23.00;;;11.30;;
71730;SDS011;59575;43.486;3.666;2022-12-07T08:16:03;26.48;;;11.45;;
71730;SDS011;59575;43.486;3.666;2022-12-07T08:18:30;22.52;;;11.30;;
71730;SDS011;59575;43.486;3.666;2022-12-07T08:20:59;19.52;;;10.85;;
71730;SDS011;59575;43.486;3.666;2022-12-07T08:23:28;26.35;;;11.40;;
71730;SDS011;59575;43.486;3.666;2022-12-07T08:25:54;25.88;;;11.40;;
71730;SDS011;59575;43.486;3.666;2022-12-07T08:28:19;21.88;;;10.63;;
71730;SDS011;59575;43.486;3.666;2022-12-07T08:30:45;21.77;;;10.48;;
71730;SDS011;59575;43.486;3.666;2022-12-07T08:33:11;31.35;;;14.23;;
71730;SDS011;59575;43.486;3.666;2022-12-07T08:35:37;31.58;;;13.88;;
71730;SDS011;59575;43.486;3.666;2022-12-07T08:38:03;43.05;;;13.93;;
71730;SDS011;59575;43.486;3.666;2022-12-07T08:40:29;40.45;;;16.92;;
71730;SDS011;59575;43.486;3.666;2022-12-07T08:42:55;22.20;;;14.27;;
71730;SDS011;59575;43.486;3.666;2022-12-07T08:45:21;24.23;;;12.38;;
71730;SDS011;59575;43.486;3.666;2022-12-07T08:50:15;27.33;;;14.00;;
71730;SDS011;59575;43.486;3.666;2022-12-07T08:52:42;32.10;;;16.05;;
71730;SDS011;59575;43.486;3.666;2022-12-07T08:55:11;30.52;;;16.85;;
71730;SDS011;59575;43.486;3.666;2022-12-07T08:57:38;31.20;;;16.13;;
71730;SDS011;59575;43.486;3.666;2022-12-07T09:00:04;29.27;;;15.35;;
71730;SDS011;59575;43.486;3.666;2022-12-07T09:02:31;20.08;;;11.13;;
71730;SDS011;59575;43.486;3.666;2022-12-07T09:04:57;26.65;;;13.20;;
71730;SDS011;59575;43.486;3.666;2022-12-07T09:07:23;21.65;;;12.18;;
71730;SDS011;59575;43.486;3.666;2022-12-07T09:09:49;21.40;;;11.05;;
71730;SDS011;59575;43.486;3.666;2022-12-07T09:12:15;25.50;;;13.50;;
71730;SDS011;59575;43.486;3.666;2022-12-07T09:14:41;31.98;;;14.85;;
71730;SDS011;59575;43.486;3.666;2022-12-07T09:17:07;25.50;;;13.32;;
71730;SDS011;59575;43.486;3.666;2022-12-07T09:19:34;24.52;;;13.18;;
71730;SDS011;59575;43.486;3.666;2022-12-07T09:22:00;22.73;;;12.40;;
71730;SDS011;59575;43.486;3.666;2022-12-07T09:24:26;25.45;;;12.45;;
71730;SDS011;59575;43.486;3.666;2022-12-07T09:26:52;30.27;;;14.13;;
71730;SDS011;59575;43.486;3.666;2022-12-07T09:29:17;22.13;;;11.93;;
71730;SDS011;59575;43.486;3.666;2022-12-07T09:31:43;26.27;;;12.40;;
71730;SDS011;59575;43.486;3.666;2022-12-07T09:34:09;21.38;;;12.35;;
71730;SDS011;59575;43.486;3.666;2022-12-07T09:36:34;24.92;;;13.18;;
71730;SDS011;59575;43.486;3.666;2022-12-07T09:39:00;24.00;;;13.32;;
71730;SDS011;59575;43.486;3.666;2022-12-07T09:41:27;27.83;;;15.48;;
71730;SDS011;59575;43.486;3.666;2022-12-07T09:44:06;27.58;;;15.00;;
71730;SDS011;59575;43.486;3.666;2022-12-07T09:46:42;27.48;;;14.23;;
71730;SDS011;59575;43.486;3.666;2022-12-07T09:49:14;25.77;;;14.38;;
71730;SDS011;59575;43.486;3.666;2022-12-07T09:51:42;31.45;;;14.88;;
71730;SDS011;59575;43.486;3.666;2022-12-07T09:54:09;37.33;;;16.77;;
71730;SDS011;59575;43.486;3.666;2022-12-07T09:56:38;32.97;;;15.23;;
71730;SDS011;59575;43.486;3.666;2022-12-07T09:59:04;32.08;;;16.73;;
71730;SDS011;59575;43.486;3.666;2022-12-07T10:01:30;28.95;;;16.58;;
71730;SDS011;59575;43.486;3.666;2022-12-07T10:04:05;40.63;;;18.33;;
71730;SDS011;59575;43.486;3.666;2022-12-07T10:06:34;37.25;;;16.70;;
71730;SDS011;59575;43.486;3.666;2022-12-07T10:09:00;32.25;;;15.98;;
71730;SDS011;59575;43.486;3.666;2022-12-07T10:11:25;37.72;;;17.60;;
71730;SDS011;59575;43.486;3.666;2022-12-07T10:13:52;29.17;;;14.95;;
71730;SDS011;59575;43.486;3.666;2022-12-07T10:16:41;33.65;;;17.85;;
71730;SDS011;59575;43.486;3.666;2022-12-07T10:19:17;50.65;;;26.23;;
71730;SDS011;59575;43.486;3.666;2022-12-07T10:22:05;35.60;;;15.63;;
71730;SDS011;59575;43.486;3.666;2022-12-07T10:24:36;29.42;;;14.68;;
71730;SDS011;59575;43.486;3.666;2022-12-07T10:27:04;21.88;;;12.82;;
71730;SDS011;59575;43.486;3.666;2022-12-07T10:29:31;19.67;;;12.13;;
71730;SDS011;59575;43.486;3.666;2022-12-07T10:32:03;16.13;;;8.95;;
71730;SDS011;59575;43.486;3.666;2022-12-07T10:39:52;16.48;;;7.90;;
71730;SDS011;59575;43.486;3.666;2022-12-07T10:44:45;14.35;;;8.52;;
71730;SDS011;59575;43.486;3.666;2022-12-07T10:50:08;16.67;;;10.18;;
71730;SDS011;59575;43.486;3.666;2022-12-07T10:52:42;18.17;;;8.90;;
71730;SDS011;59575;43.486;3.666;2022-12-07T10:55:21;16.45;;;7.68;;
71730;SDS011;59575;43.486;3.666;2022-12-07T10:58:11;15.18;;;7.90;;
71730;SDS011;59575;43.486;3.666;2022-12-07T11:20:12;15.23;;;7.63;;
71730;SDS011;59575;43.486;3.666;2022-12-07T11:23:16;14.93;;;7.68;;
71730;SDS011;59575;43.486;3.666;2022-12-07T11:34:39;11.65;;;6.90;;
71730;SDS011;59575;43.486;3.666;2022-12-07T11:37:12;14.05;;;7.20;;
71730;SDS011;59575;43.486;3.666;2022-12-07T11:40:02;17.83;;;7.28;;
71730;SDS011;59575;43.486;3.666;2022-12-07T11:42:41;12.25;;;6.63;;
71730;SDS011;59575;43.486;3.666;2022-12-07T11:45:15;12.65;;;7.20;;
71730;SDS011;59575;43.486;3.666;2022-12-07T11:52:49;13.98;;;7.45;;
71730;SDS011;59575;43.486;3.666;2022-12-07T11:55:24;20.75;;;7.53;;
71730;SDS011;59575;43.486;3.666;2022-12-07T11:57:56;23.75;;;7.57;;
71730;SDS011;59575;43.486;3.666;2022-12-07T12:00:41;24.27;;;7.30;;
71730;SDS011;59575;43.486;3.666;2022-12-07T12:03:15;10.73;;;6.00;;
71730;SDS011;59575;43.486;3.666;2022-12-07T12:06:03;13.38;;;6.30;;
71730;SDS011;59575;43.486;3.666;2022-12-07T12:08:30;11.40;;;6.13;;
71730;SDS011;59575;43.486;3.666;2022-12-07T12:13:43;14.38;;;6.60;;
71730;SDS011;59575;43.486;3.666;2022-12-07T12:19:23;18.30;;;8.35;;
71730;SDS011;59575;43.486;3.666;2022-12-07T12:24:17;12.65;;;6.70;;
71730;SDS011;59575;43.486;3.666;2022-12-07T12:26:51;16.77;;;6.93;;
71730;SDS011;59575;43.486;3.666;2022-12-07T12:34:57;17.17;;;8.90;;
71730;SDS011;59575;43.486;3.666;2022-12-07T12:37:45;14.80;;;7.38;;
71730;SDS011;59575;43.486;3.666;2022-12-07T12:42:50;13.65;;;7.45;;
71730;SDS011;59575;43.486;3.666;2022-12-07T12:45:24;12.85;;;6.93;;
71730;SDS011;59575;43.486;3.666;2022-12-07T12:48:04;11.20;;;5.72;;
71730;SDS011;59575;43.486;3.666;2022-12-07T12:50:49;12.20;;;6.83;;
71730;SDS011;59575;43.486;3.666;2022-12-07T12:54:02;25.90;;;7.88;;
71730;SDS011;59575;43.486;3.666;2022-12-07T12:56:51;17.92;;;7.05;;
71730;SDS011;59575;43.486;3.666;2022-12-07T12:59:38;13.27;;;6.95;;
71730;SDS011;59575;43.486;3.666;2022-12-07T13:15:36;13.93;;;6.53;;
71730;SDS011;59575;43.486;3.666;2022-12-07T13:23:26;13.02;;;7.03;;
71730;SDS011;59575;43.486;3.666;2022-12-07T13:28:43;14.23;;;6.20;;
71730;SDS011;59575;43.486;3.666;2022-12-07T13:33:44;16.08;;;8.10;;
71730;SDS011;59575;43.486;3.666;2022-12-07T13:36:18;11.25;;;6.43;;
71730;SDS011;59575;43.486;3.666;2022-12-07T13:38:53;16.08;;;8.95;;
71730;SDS011;59575;43.486;3.666;2022-12-07T13:41:26;11.80;;;5.30;;
71730;SDS011;59575;43.486;3.666;2022-12-07T13:43:59;15.50;;;8.30;;
71730;SDS011;59575;43.486;3.666;2022-12-07T13:46:32;14.93;;;5.70;;
71730;SDS011;59575;43.486;3.666;2022-12-07T13:49:15;11.30;;;5.00;;
71730;SDS011;59575;43.486;3.666;2022-12-07T13:51:46;12.85;;;5.80;;
71730;SDS011;59575;43.486;3.666;2022-12-07T13:54:13;9.98;;;5.28;;
71730;SDS011;59575;43.486;3.666;2022-12-07T13:56:40;16.13;;;6.15;;
71730;SDS011;59575;43.486;3.666;2022-12-07T13:59:22;12.48;;;5.72;;
71730;SDS011;59575;43.486;3.666;2022-12-07T14:01:50;15.75;;;5.07;;
71730;SDS011;59575;43.486;3.666;2022-12-07T14:04:35;12.63;;;4.60;;
71730;SDS011;59575;43.486;3.666;2022-12-07T14:09:59;11.18;;;5.57;;
71730;SDS011;59575;43.486;3.666;2022-12-07T14:12:28;12.00;;;6.50;;
71730;SDS011;59575;43.486;3.666;2022-12-07T14:14:55;11.38;;;5.50;;
71730;SDS011;59575;43.486;3.666;2022-12-07T14:17:24;11.15;;;6.18;;
71730;SDS011;59575;43.486;3.666;2022-12-07T14:19:55;8.98;;;4.65;;
71730;SDS011;59575;43.486;3.666;2022-12-07T14:24:50;9.25;;;5.20;;
71730;SDS011;59575;43.486;3.666;2022-12-07T14:27:23;10.50;;;4.90;;
71730;SDS011;59575;43.486;3.666;2022-12-07T14:29:55;8.43;;;4.88;;
71730;SDS011;59575;43.486;3.666;2022-12-07T14:32:25;18.30;;;5.78;;
71730;SDS011;59575;43.486;3.666;2022-12-07T14:35:14;9.90;;;4.83;;
71730;SDS011;59575;43.486;3.666;2022-12-07T14:37:43;10.98;;;4.80;;
71730;SDS011;59575;43.486;3.666;2022-12-07T14:40:18;10.98;;;5.10;;
71730;SDS011;59575;43.486;3.666;2022-12-07T14:42:45;10.75;;;5.03;;
71730;SDS011;59575;43.486;3.666;2022-12-07T14:45:16;9.93;;;4.53;;
71730;SDS011;59575;43.486;3.666;2022-12-07T14:47:44;8.55;;;3.70;;
71730;SDS011;59575;43.486;3.666;2022-12-07T14:50:12;11.13;;;4.70;;
71730;SDS011;59575;43.486;3.666;2022-12-07T14:52:39;8.73;;;4.18;;
71730;SDS011;59575;43.486;3.666;2022-12-07T14:55:26;9.00;;;4.57;;
71730;SDS011;59575;43.486;3.666;2022-12-07T14:57:54;10.18;;;5.32;;
71730;SDS011;59575;43.486;3.666;2022-12-07T15:00:20;15.43;;;7.45;;
71730;SDS011;59575;43.486;3.666;2022-12-07T15:02:50;10.60;;;4.90;;
71730;SDS011;59575;43.486;3.666;2022-12-07T15:05:17;11.95;;;5.00;;
71730;SDS011;59575;43.486;3.666;2022-12-07T15:07:44;14.73;;;7.25;;
71730;SDS011;59575;43.486;3.666;2022-12-07T15:10:33;15.10;;;6.47;;
71730;SDS011;59575;43.486;3.666;2022-12-07T15:13:01;20.60;;;5.82;;
71730;SDS011;59575;43.486;3.666;2022-12-07T15:15:47;18.35;;;6.65;;
71730;SDS011;59575;43.486;3.666;2022-12-07T15:18:14;32.25;;;13.55;;
71730;SDS011;59575;43.486;3.666;2022-12-07T15:20:41;23.75;;;9.32;;
71730;SDS011;59575;43.486;3.666;2022-12-07T15:23:06;23.73;;;9.60;;
71730;SDS011;59575;43.486;3.666;2022-12-07T15:25:32;23.90;;;12.02;;
71730;SDS011;59575;43.486;3.666;2022-12-07T15:27:58;18.23;;;10.15;;
71730;SDS011;59575;43.486;3.666;2022-12-07T15:30:24;31.65;;;16.85;;
71730;SDS011;59575;43.486;3.666;2022-12-07T15:32:53;44.25;;;18.90;;
71730;SDS011;59575;43.486;3.666;2022-12-07T15:35:19;46.28;;;21.65;;
71730;SDS011;59575;43.486;3.666;2022-12-07T15:37:45;31.13;;;14.77;;
71730;SDS011;59575;43.486;3.666;2022-12-07T15:40:11;26.10;;;10.38;;
71730;SDS011;59575;43.486;3.666;2022-12-07T15:42:37;34.25;;;15.10;;
71730;SDS011;59575;43.486;3.666;2022-12-07T15:45:04;27.40;;;14.85;;
71730;SDS011;59575;43.486;3.666;2022-12-07T15:47:39;37.08;;;17.52;;
71730;SDS011;59575;43.486;3.666;2022-12-07T15:50:07;30.88;;;14.10;;
71730;SDS011;59575;43.486;3.666;2022-12-07T15:52:38;29.85;;;13.63;;
71730;SDS011;59575;43.486;3.666;2022-12-07T15:55:04;25.58;;;9.18;;
71730;SDS011;59575;43.486;3.666;2022-12-07T15:57:31;18.42;;;7.82;;
71730;SDS011;59575;43.486;3.666;2022-12-07T15:59:58;13.15;;;5.75;;
71730;SDS011;59575;43.486;3.666;2022-12-07T16:02:24;10.65;;;4.90;;
71730;SDS011;59575;43.486;3.666;2022-12-07T16:04:50;39.08;;;22.20;;
71730;SDS011;59575;43.486;3.666;2022-12-07T16:07:16;35.08;;;17.33;;
71730;SDS011;59575;43.486;3.666;2022-12-07T16:09:43;21.80;;;12.07;;
71730;SDS011;59575;43.486;3.666;2022-12-07T16:12:10;27.55;;;11.35;;
71730;SDS011;59575;43.486;3.666;2022-12-07T16:14:37;19.30;;;10.73;;
71730;SDS011;59575;43.486;3.666;2022-12-07T16:17:03;20.65;;;10.18;;
71730;SDS011;59575;43.486;3.666;2022-12-07T16:19:30;17.52;;;10.13;;
71730;SDS011;59575;43.486;3.666;2022-12-07T16:21:56;23.80;;;10.85;;
71730;SDS011;59575;43.486;3.666;2022-12-07T16:24:22;23.80;;;12.80;;
71730;SDS011;59575;43.486;3.666;2022-12-07T16:26:48;25.77;;;13.23;;
71730;SDS011;59575;43.486;3.666;2022-12-07T16:29:14;20.38;;;12.48;;
71730;SDS011;59575;43.486;3.666;2022-12-07T16:31:41;13.25;;;8.60;;
71730;SDS011;59575;43.486;3.666;2022-12-07T16:34:06;27.17;;;10.20;;
71730;SDS011;59575;43.486;3.666;2022-12-07T16:36:33;19.95;;;12.48;;
71730;SDS011;59575;43.486;3.666;2022-12-07T16:38:59;22.40;;;12.07;;
71730;SDS011;59575;43.486;3.666;2022-12-07T16:41:26;22.55;;;13.02;;
71730;SDS011;59575;43.486;3.666;2022-12-07T16:43:51;27.10;;;15.80;;
71730;SDS011;59575;43.486;3.666;2022-12-07T16:46:17;19.90;;;11.65;;
71730;SDS011;59575;43.486;3.666;2022-12-07T16:48:43;25.42;;;13.68;;